KGCN/GCN METAR and TAF weather

Enter ICAO airport designator
Station Type Date Time Source
KGCN METAR 2021/03/05 19:54 UTC NOAA

KGCN 051954Z 04018G22KT 10SM CLR 13/M07 A3032 RMK AO2 SLP249 T01281067


Station Type Date Time Source
KGCN Decoded METAR 2021/03/05 19:54 UTC NOAA

GRAND CANYON NATL PARK AIRPORT , AZ, United States (KGCN) 35-57N 112-09W 2016M
Mar 05, 2021 - 02:54 PM EST / 2021.03.05 1954 UTC
Wind: from the NE (040 degrees) at 21 MPH (18 KT) gusting to 25 MPH (22 KT):0
Visibility: 10 mile(s):0
Sky conditions: clear
Temperature: 55.0 F (12.8 C)
Dew Point: 19.9 F (-6.7 C)
Relative Humidity: 25%
Pressure (altimeter): 30.32 in. Hg (1026 hPa)
ob: KGCN 051954Z 04018G22KT 10SM CLR 13/M07 A3032 RMK AO2 SLP249 T01281067
cycle: 20

Station Type Date Time Source
KGCN TAF 2021/03/05 18:34 UTC NOAA

TAF KGCN 051731Z 0518/0618 07012G20KT P6SM SKC
FM052200 08011KT P6SM SKC
FM060200 04005KT P6SM SCT250

Example: see airport list